Time;durP1;ratioP1;P1;durP2;ratioP2;P2;SDS_P1;SDS_P2;PMS_P1;PMS_P2;Temp;Humidity;BMP_temperature;BMP_pressure;BME280_temperature;BME280_humidity;BME280_pressure;Samples;Min_cycle;Max_cycle;Signal;HPM_P1;HPM_P2
2023/10/28 00:01:37;;;;;;;31.07;14.37;;;9.20;99.90;;;;;;4360858;28;659210;-65
2023/10/28 00:04:25;;;;;;;28.30;15.77;;;9.20;99.90;;;;;;4333448;28;659135;-66
2023/10/28 00:07:12;;;;;;;31.43;16.97;;;9.20;99.90;;;;;;4337599;28;659134;-67
2023/10/28 00:10:00;;;;;;;31.70;17.50;;;9.20;99.90;;;;;;4361042;28;659688;-66
2023/10/28 00:12:47;;;;;;;26.70;17.27;;;9.20;99.90;;;;;;4353436;28;658987;-65
2023/10/28 00:15:34;;;;;;;29.47;17.73;;;9.20;99.90;;;;;;4334563;28;659968;-65
2023/10/28 00:18:21;;;;;;;30.10;17.13;;;9.20;99.90;;;;;;4360564;28;658703;-65
2023/10/28 00:21:11;;;;;;;21.67;12.87;;;9.20;99.90;;;;;;4331384;28;658825;-66
2023/10/28 00:23:58;;;;;;;34.00;16.00;;;9.30;99.90;;;;;;4342663;28;658468;-65
2023/10/28 00:26:47;;;;;;;39.13;17.60;;;9.10;99.90;;;;;;4355040;28;659138;-66
2023/10/28 00:29:34;;;;;;;24.07;13.10;;;9.20;99.90;;;;;;4336001;28;659983;-65
2023/10/28 00:32:22;;;;;;;18.80;10.33;;;9.20;99.90;;;;;;4354412;28;658764;-65
2023/10/28 00:35:11;;;;;;;23.10;13.03;;;9.20;99.90;;;;;;4337243;28;659631;-66
2023/10/28 00:38:00;;;;;;;24.03;14.27;;;9.10;99.90;;;;;;4335467;28;658560;-66
2023/10/28 00:40:47;;;;;;;8.07;5.27;;;9.10;99.90;;;;;;4349292;28;659278;-66
2023/10/28 00:43:35;;;;;;;21.07;13.00;;;9.20;99.90;;;;;;4358930;28;657850;-65
2023/10/28 00:46:22;;;;;;;26.57;14.27;;;9.10;99.90;;;;;;4356316;28;658265;-65
2023/10/28 00:49:09;;;;;;;22.50;12.77;;;9.10;99.90;;;;;;4333285;28;661598;-65
2023/10/28 00:51:56;;;;;;;21.60;13.23;;;9.10;99.90;;;;;;4353308;28;658336;-65
2023/10/28 00:54:47;;;;;;;20.67;13.03;;;9.10;99.90;;;;;;4324441;28;658658;-65
2023/10/28 00:57:35;;;;;;;18.00;12.00;;;9.10;99.90;;;;;;4331267;28;659022;-65
2023/10/28 01:00:22;;;;;;;20.83;12.30;;;9.10;99.90;;;;;;4358051;28;658712;-65
2023/10/28 01:03:09;;;;;;;18.93;10.43;;;9.10;99.90;;;;;;4332430;28;659763;-65
2023/10/28 01:05:56;;;;;;;19.03;11.10;;;9.10;99.90;;;;;;4360638;28;658334;-65
2023/10/28 01:08:44;;;;;;;19.45;10.55;;;9.00;99.90;;;;;;4334918;28;658194;-65
2023/10/28 01:11:33;;;;;;;18.40;9.70;;;9.10;99.90;;;;;;4357059;28;658600;-65
2023/10/28 01:14:20;;;;;;;13.07;8.37;;;9.00;99.90;;;;;;4335065;28;658326;-67
2023/10/28 01:17:08;;;;;;;16.23;9.53;;;9.10;99.90;;;;;;4335693;28;657525;-65
2023/10/28 01:19:56;;;;;;;15.93;8.53;;;9.00;99.90;;;;;;4352978;28;657927;-65
2023/10/28 01:22:45;;;;;;;16.35;8.05;;;9.00;99.90;;;;;;4334910;28;657499;-65
2023/10/28 01:25:32;;;;;;;14.35;9.00;;;9.10;99.90;;;;;;4336881;28;657466;-65
2023/10/28 01:28:20;;;;;;;12.57;8.17;;;9.00;99.90;;;;;;4359512;28;658240;-67
2023/10/28 01:31:08;;;;;;;21.67;10.73;;;9.00;99.90;;;;;;4355893;28;658537;-66
2023/10/28 01:33:55;;;;;;;11.33;4.63;;;9.00;99.90;;;;;;4362574;28;659002;-65
2023/10/28 01:36:45;;;;;;;17.00;9.67;;;9.10;99.90;;;;;;4342277;28;657799;-67
2023/10/28 01:39:33;;;;;;;20.63;10.33;;;9.00;99.90;;;;;;4358714;28;657699;-65
2023/10/28 01:42:22;;;;;;;15.67;9.43;;;9.10;99.90;;;;;;4329839;28;659581;-66
2023/10/28 01:45:10;;;;;;;14.47;9.13;;;9.10;99.90;;;;;;4335935;28;659033;-65
2023/10/28 01:47:58;;;;;;;12.83;7.80;;;9.10;99.90;;;;;;4348799;28;657622;-67
2023/10/28 01:50:45;;;;;;;14.40;9.97;;;9.10;99.90;;;;;;4360855;28;658178;-65
2023/10/28 01:53:33;;;;;;;16.00;10.00;;;9.20;99.90;;;;;;4352782;28;657844;-67
2023/10/28 01:56:22;;;;;;;17.67;9.47;;;9.10;99.90;;;;;;4350019;28;659432;-64
2023/10/28 01:59:10;;;;;;;13.53;8.57;;;9.10;99.90;;;;;;4338772;28;658232;-65
2023/10/28 02:02:00;;;;;;;15.65;10.13;;;9.10;99.90;;;;;;4347424;28;658540;-66
2023/10/28 02:04:47;;;;;;;16.47;6.67;;;9.10;99.90;;;;;;4354508;28;658850;-68
2023/10/28 02:07:35;;;;;;;13.83;8.73;;;9.10;99.90;;;;;;4359054;28;658897;-65
2023/10/28 02:10:23;;;;;;;16.97;10.67;;;9.10;99.90;;;;;;4347520;28;657252;-66
2023/10/28 02:13:13;;;;;;;18.63;12.23;;;9.20;99.90;;;;;;4354298;28;658904;-65
2023/10/28 02:16:01;;;;;;;16.63;12.07;;;9.10;99.90;;;;;;4340618;28;659934;-65
2023/10/28 02:18:48;;;;;;;19.53;12.87;;;9.10;99.90;;;;;;4343033;28;659281;-65
2023/10/28 02:21:35;;;;;;;20.27;12.70;;;9.10;99.90;;;;;;4352316;28;659848;-65
2023/10/28 02:24:22;;;;;;;18.90;11.37;;;9.10;99.90;;;;;;4341634;28;658746;-67
2023/10/28 02:27:10;;;;;;;15.90;9.77;;;9.10;99.90;;;;;;4361224;28;660193;-65
2023/10/28 02:29:59;;;;;;;20.38;11.60;;;9.10;99.90;;;;;;4345100;28;657421;-67
2023/10/28 02:32:46;;;;;;;18.37;11.07;;;9.00;99.90;;;;;;4358933;28;658830;-65
2023/10/28 02:35:33;;;;;;;17.50;9.23;;;9.00;99.90;;;;;;4342394;28;658648;-65
2023/10/28 02:38:21;;;;;;;8.57;4.50;;;9.10;99.90;;;;;;4365914;28;657758;-65
2023/10/28 02:41:08;;;;;;;12.13;7.30;;;9.10;99.90;;;;;;4352362;28;657760;-66
2023/10/28 02:43:55;;;;;;;12.83;8.60;;;9.10;99.90;;;;;;4376386;28;658229;-65
2023/10/28 02:46:44;;;;;;;12.10;8.83;;;9.00;99.90;;;;;;4355380;28;657897;-67
2023/10/28 02:49:31;;;;;;;12.43;8.43;;;9.00;99.90;;;;;;4372371;28;658297;-66
2023/10/28 02:52:19;;;;;;;14.77;8.63;;;9.00;99.90;;;;;;4349720;28;657634;-65
2023/10/28 02:55:07;;;;;;;15.47;9.60;;;9.10;99.90;;;;;;4369225;28;657014;-65
2023/10/28 02:57:54;;;;;;;12.27;8.47;;;9.00;99.90;;;;;;4349734;28;658759;-66
2023/10/28 03:00:41;;;;;;;9.87;6.60;;;9.10;99.90;;;;;;4378115;28;657141;-66
2023/10/28 03:03:30;;;;;;;13.90;8.40;;;9.00;99.90;;;;;;4358439;28;656679;-66
2023/10/28 03:06:17;;;;;;;12.10;6.23;;;8.90;99.90;;;;;;4367511;28;658378;-66
2023/10/28 03:09:06;;;;;;;12.43;8.33;;;9.00;99.90;;;;;;4370089;28;658655;-66
2023/10/28 03:11:53;;;;;;;12.67;7.23;;;8.90;99.90;;;;;;4358029;28;657374;-66
2023/10/28 03:14:41;;;;;;;10.90;7.10;;;8.90;99.90;;;;;;4377162;28;658131;-65
2023/10/28 03:17:28;;;;;;;8.37;5.43;;;9.00;99.90;;;;;;4354504;28;657584;-66
2023/10/28 03:20:19;;;;;;;5.80;3.50;;;9.00;99.90;;;;;;4376915;28;657329;-65
2023/10/28 03:23:06;;;;;;;8.77;5.80;;;8.90;99.90;;;;;;4355078;28;656938;-65
2023/10/28 03:25:53;;;;;;;9.27;6.03;;;9.00;99.90;;;;;;4354872;28;656629;-65
2023/10/28 03:28:40;;;;;;;6.17;4.50;;;9.00;99.90;;;;;;4375145;28;657899;-66
2023/10/28 03:31:28;;;;;;;7.53;5.27;;;9.00;99.90;;;;;;4355902;28;656680;-66
2023/10/28 03:34:15;;;;;;;6.03;4.13;;;9.00;99.90;;;;;;4370621;28;657635;-65
2023/10/28 03:37:04;;;;;;;6.47;4.43;;;9.00;99.90;;;;;;4357063;28;656183;-66
2023/10/28 03:39:52;;;;;;;8.27;4.70;;;9.00;99.90;;;;;;4375311;28;656901;-65
2023/10/28 03:42:39;;;;;;;5.93;4.30;;;8.80;99.90;;;;;;4357556;28;657240;-65
2023/10/28 03:45:27;;;;;;;9.97;4.53;;;8.80;99.90;;;;;;4373479;28;656270;-66
2023/10/28 03:48:15;;;;;;;11.50;4.70;;;8.80;99.90;;;;;;4353538;28;657141;-66
2023/10/28 03:51:03;;;;;;;8.77;4.90;;;8.70;99.90;;;;;;4362378;28;658046;-66
2023/10/28 03:53:52;;;;;;;7.93;3.90;;;8.70;99.90;;;;;;4375990;28;657138;-66
2023/10/28 03:56:39;;;;;;;7.37;4.07;;;8.70;99.90;;;;;;4351078;28;657112;-65
2023/10/28 03:59:27;;;;;;;5.33;3.40;;;8.70;99.90;;;;;;4374346;28;656507;-66
2023/10/28 04:02:14;;;;;;;8.67;4.20;;;8.70;99.90;;;;;;4350750;28;656421;-66
2023/10/28 04:05:01;;;;;;;3.13;2.43;;;8.70;99.90;;;;;;4375641;28;656791;-66
2023/10/28 04:07:48;;;;;;;7.00;4.20;;;8.70;99.90;;;;;;4356266;28;656970;-66
2023/10/28 04:10:37;;;;;;;7.27;4.47;;;8.60;99.90;;;;;;4375856;28;657457;-65
2023/10/28 04:13:24;;;;;;;5.50;3.60;;;8.70;99.90;;;;;;4344636;28;658091;-66
2023/10/28 04:16:11;;;;;;;5.67;3.90;;;8.70;99.90;;;;;;4371995;28;656337;-67
2023/10/28 04:18:59;;;;;;;9.53;3.93;;;8.70;99.90;;;;;;4355517;28;656788;-66
2023/10/28 04:21:46;;;;;;;6.50;3.77;;;8.70;99.90;;;;;;4374537;28;656821;-65
2023/10/28 04:24:33;;;;;;;5.80;3.20;;;8.80;99.90;;;;;;4356554;28;656876;-65
2023/10/28 04:27:22;;;;;;;8.50;3.10;;;8.70;99.90;;;;;;4371960;28;657316;-66
2023/10/28 04:30:11;;;;;;;11.37;4.27;;;8.70;99.90;;;;;;4352785;28;657394;-65
2023/10/28 04:32:58;;;;;;;11.00;3.93;;;8.70;99.90;;;;;;4350208;28;657964;-66
2023/10/28 04:35:45;;;;;;;6.47;3.70;;;8.60;99.90;;;;;;4376407;28;658739;-65
2023/10/28 04:38:34;;;;;;;5.07;2.73;;;8.70;99.90;;;;;;4354487;28;656450;-67
2023/10/28 04:41:21;;;;;;;11.70;2.78;;;8.70;99.90;;;;;;4374880;28;656133;-65
2023/10/28 04:44:13;;;;;;;7.20;2.83;;;8.70;99.90;;;;;;4352625;28;658396;-66
2023/10/28 04:47:01;;;;;;;5.77;3.60;;;8.70;99.90;;;;;;4351405;28;657347;-65
2023/10/28 04:49:48;;;;;;;5.77;3.60;;;8.60;99.90;;;;;;4348019;28;657570;-66
2023/10/28 04:52:36;;;;;;;11.03;3.97;;;8.50;99.90;;;;;;4373322;28;657553;-65
2023/10/28 04:55:25;;;;;;;7.30;3.30;;;8.50;99.90;;;;;;4351047;28;657368;-66
2023/10/28 04:58:14;;;;;;;6.20;3.63;;;8.50;99.90;;;;;;4353319;28;656366;-67
2023/10/28 05:01:02;;;;;;;7.07;4.30;;;8.50;99.90;;;;;;4371341;28;656986;-66
2023/10/28 05:03:50;;;;;;;7.37;4.37;;;8.50;99.90;;;;;;4357113;28;657236;-65
2023/10/28 05:06:38;;;;;;;9.13;5.00;;;8.40;99.90;;;;;;4354736;28;656680;-67
2023/10/28 05:09:25;;;;;;;9.33;4.83;;;8.50;99.90;;;;;;4373424;28;657580;-66
2023/10/28 05:12:12;;;;;;;8.73;5.20;;;8.40;99.90;;;;;;4367230;28;656779;-67
2023/10/28 05:15:00;;;;;;;8.33;4.93;;;8.30;99.90;;;;;;4376014;28;657313;-65
2023/10/28 05:17:48;;;;;;;7.50;4.40;;;8.30;99.90;;;;;;4370598;28;656411;-66
2023/10/28 05:20:35;;;;;;;8.30;4.77;;;8.30;99.90;;;;;;4352317;28;657735;-66
2023/10/28 05:23:23;;;;;;;8.13;4.13;;;8.10;99.90;;;;;;4352161;28;656891;-66
2023/10/28 05:26:10;;;;;;;9.93;5.43;;;8.20;99.90;;;;;;4376974;28;657198;-66
2023/10/28 05:28:57;;;;;;;7.10;5.10;;;8.10;99.90;;;;;;4360417;28;656647;-67
2023/10/28 05:31:45;;;;;;;10.57;5.17;;;8.20;99.90;;;;;;4376528;28;657035;-66
2023/10/28 05:34:33;;;;;;;12.07;5.90;;;8.10;99.90;;;;;;4370853;28;657577;-66
2023/10/28 05:37:21;;;;;;;7.77;6.00;;;8.20;99.90;;;;;;4347436;28;657989;-66
2023/10/28 05:40:10;;;;;;;8.10;4.00;;;8.10;99.90;;;;;;4356446;28;656285;-66
2023/10/28 05:42:57;;;;;;;12.60;4.87;;;8.10;99.90;;;;;;4375438;28;656806;-66
2023/10/28 05:45:45;;;;;;;9.67;4.63;;;8.00;99.90;;;;;;4375225;28;658458;-65
2023/10/28 05:48:32;;;;;;;7.10;4.40;;;8.10;99.90;;;;;;4374040;28;656581;-66
2023/10/28 05:51:23;;;;;;;7.13;4.45;;;8.10;99.90;;;;;;4354756;28;656887;-66
2023/10/28 05:54:11;;;;;;;10.83;4.97;;;8.00;99.90;;;;;;4348001;28;656589;-66
2023/10/28 05:56:58;;;;;;;8.77;6.13;;;8.00;99.90;;;;;;4353868;28;657680;-67
2023/10/28 05:59:45;;;;;;;14.07;5.97;;;8.00;99.90;;;;;;4378766;28;656797;-66
2023/10/28 06:02:32;;;;;;;10.00;5.83;;;8.00;99.90;;;;;;4353172;28;657299;-67
2023/10/28 06:05:19;;;;;;;14.77;7.20;;;8.10;99.90;;;;;;4373521;28;658070;-66
2023/10/28 06:08:08;;;;;;;14.93;6.30;;;8.10;99.90;;;;;;4367707;28;657245;-65
2023/10/28 06:10:56;;;;;;;11.27;6.20;;;8.20;99.90;;;;;;4349086;28;659080;-65
2023/10/28 06:13:44;;;;;;;7.23;4.17;;;8.20;99.90;;;;;;4352327;28;657952;-67
2023/10/28 06:16:31;;;;;;;8.83;5.00;;;8.30;99.90;;;;;;4372782;28;656465;-66
2023/10/28 06:19:21;;;;;;;9.60;4.57;;;8.30;99.90;;;;;;4351571;28;657021;-66
2023/10/28 06:22:11;;;;;;;10.20;5.27;;;8.30;99.90;;;;;;4345484;28;656443;-67
2023/10/28 06:25:00;;;;;;;9.73;5.30;;;8.30;99.90;;;;;;4353145;28;657678;-66
2023/10/28 06:27:48;;;;;;;7.00;3.50;;;8.40;99.90;;;;;;4355647;28;657315;-67
2023/10/28 06:30:35;;;;;;;11.33;6.17;;;8.40;99.90;;;;;;4368766;28;657473;-66
2023/10/28 06:33:24;;;;;;;9.70;5.83;;;8.40;99.90;;;;;;4350177;28;657299;-67
2023/10/28 06:36:11;;;;;;;9.43;4.30;;;8.40;99.90;;;;;;4372271;28;656668;-66
2023/10/28 06:38:58;;;;;;;8.47;4.07;;;8.50;99.90;;;;;;4350720;28;656853;-67
2023/10/28 06:41:47;;;;;;;4.07;2.67;;;8.50;99.90;;;;;;4378752;28;657469;-67
2023/10/28 06:44:34;;;;;;;9.13;4.60;;;8.50;99.90;;;;;;4354136;28;656491;-66
2023/10/28 06:47:21;;;;;;;5.97;3.17;;;8.50;99.90;;;;;;4373309;28;656939;-67
2023/10/28 06:50:09;;;;;;;4.63;2.30;;;8.60;99.90;;;;;;4352929;28;656662;-66
2023/10/28 06:52:56;;;;;;;13.70;3.90;;;8.60;99.90;;;;;;4380535;28;656847;-65
2023/10/28 06:55:43;;;;;;;5.80;1.73;;;8.60;99.90;;;;;;4356401;28;657393;-67
2023/10/28 06:58:32;;;;;;;7.43;4.60;;;8.70;99.90;;;;;;4377057;28;657206;-66
2023/10/28 07:01:20;;;;;;;5.80;3.63;;;8.80;99.90;;;;;;4353694;28;657781;-65
2023/10/28 07:04:07;;;;;;;5.20;2.13;;;8.90;99.90;;;;;;4376048;28;656541;-65
2023/10/28 07:06:54;;;;;;;7.77;4.63;;;9.00;99.90;;;;;;4357824;28;657462;-65
2023/10/28 07:09:41;;;;;;;7.67;3.90;;;9.00;99.90;;;;;;4378682;28;656219;-66
2023/10/28 07:12:28;;;;;;;5.57;3.13;;;9.10;99.90;;;;;;4350889;28;656994;-67
2023/10/28 07:15:17;;;;;;;4.00;1.67;;;9.10;99.90;;;;;;4373067;28;657290;-65
2023/10/28 07:18:06;;;;;;;5.33;1.63;;;9.20;99.90;;;;;;4352906;28;657720;-65
2023/10/28 07:20:53;;;;;;;4.23;2.40;;;9.30;99.90;;;;;;4358029;28;656646;-65
2023/10/28 07:23:40;;;;;;;5.33;2.97;;;9.30;99.90;;;;;;4369650;28;656307;-66
2023/10/28 07:26:29;;;;;;;5.53;3.27;;;9.40;99.90;;;;;;4366619;28;657299;-68
2023/10/28 07:29:17;;;;;;;6.10;2.13;;;9.50;99.90;;;;;;4374682;28;657742;-66
2023/10/28 07:32:06;;;;;;;7.53;2.50;;;9.60;99.90;;;;;;4358304;28;657031;-66
2023/10/28 07:34:53;;;;;;;4.10;2.73;;;9.60;99.90;;;;;;4358219;28;657231;-65
2023/10/28 07:37:41;;;;;;;9.23;3.03;;;9.70;99.90;;;;;;4375217;28;657596;-66
2023/10/28 07:40:28;;;;;;;6.70;2.33;;;9.70;99.90;;;;;;4352166;28;656601;-66
2023/10/28 07:43:17;;;;;;;3.47;1.50;;;9.80;99.90;;;;;;4367612;28;657398;-65
2023/10/28 07:46:05;;;;;;;4.20;2.50;;;9.90;99.90;;;;;;4355449;28;656584;-65
2023/10/28 07:48:54;;;;;;;5.73;2.60;;;10.00;99.90;;;;;;4357647;28;656855;-67
2023/10/28 07:51:41;;;;;;;6.13;3.00;;;10.20;99.90;;;;;;4374012;28;657683;-65
2023/10/28 07:54:28;;;;;;;3.70;2.40;;;10.40;99.90;;;;;;4354117;28;658563;-67
2023/10/28 07:57:16;;;;;;;6.20;2.00;;;10.50;99.90;;;;;;4372009;28;658550;-65
2023/10/28 08:00:05;;;;;;;2.10;1.43;;;10.70;99.90;;;;;;4356409;28;658708;-65
2023/10/28 08:02:52;;;;;;;2.97;1.93;;;10.80;99.90;;;;;;4364346;28;658028;-67
2023/10/28 08:05:42;;;;;;;3.23;1.63;;;10.80;99.90;;;;;;4377376;28;658347;-65
2023/10/28 08:08:31;;;;;;;3.50;1.80;;;10.60;99.90;;;;;;4351766;28;658448;-65
2023/10/28 08:11:18;;;;;;;3.23;1.03;;;10.90;99.90;;;;;;4351133;28;657242;-66
2023/10/28 08:14:05;;;;;;;4.87;1.60;;;11.10;99.90;;;;;;4369835;28;658745;-65
2023/10/28 08:16:53;;;;;;;2.57;1.30;;;10.90;99.90;;;;;;4355514;28;657333;-67
2023/10/28 08:19:40;;;;;;;2.50;1.77;;;11.10;99.90;;;;;;4372485;28;659241;-66
2023/10/28 08:22:29;;;;;;;2.23;1.83;;;11.30;99.90;;;;;;4353141;28;658115;-67
2023/10/28 08:25:16;;;;;;;6.70;1.67;;;11.40;99.90;;;;;;4366425;28;658409;-66
2023/10/28 08:28:04;;;;;;;4.38;1.95;;;11.30;99.90;;;;;;4355585;28;658488;-64
2023/10/28 08:30:51;;;;;;;4.13;1.87;;;11.20;99.90;;;;;;4372613;28;657603;-64
2023/10/28 08:33:41;;;;;;;1.47;1.00;;;11.10;99.90;;;;;;4349475;28;657731;-66
2023/10/28 08:36:29;;;;;;;2.23;1.03;;;11.50;99.90;;;;;;4356497;28;657404;-65
2023/10/28 08:39:19;;;;;;;2.60;1.25;;;11.60;99.90;;;;;;4371579;28;658890;-65
2023/10/28 08:42:06;;;;;;;5.20;1.40;;;11.60;99.90;;;;;;4349760;28;657882;-64
2023/10/28 08:44:54;;;;;;;5.37;1.50;;;11.80;99.90;;;;;;4351972;28;657130;-65
2023/10/28 08:47:41;;;;;;;4.70;1.77;;;12.00;99.90;;;;;;4370080;28;658272;-65
2023/10/28 08:50:28;;;;;;;4.30;1.30;;;12.20;99.90;;;;;;4351763;28;658178;-66
2023/10/28 08:53:16;;;;;;;1.33;0.73;;;12.60;99.90;;;;;;4372099;28;657749;-65
2023/10/28 08:56:06;;;;;;;6.37;1.27;;;12.80;99.90;;;;;;4347485;28;658154;-65
2023/10/28 08:58:53;;;;;;;3.47;1.50;;;12.20;99.90;;;;;;4354270;28;657192;-65
2023/10/28 09:01:41;;;;;;;5.50;1.47;;;11.80;99.90;;;;;;4373584;28;658484;-65
2023/10/28 09:04:28;;;;;;;0.47;0.43;;;12.10;99.90;;;;;;4351774;28;657900;-65
2023/10/28 09:07:15;;;;;;;1.33;0.77;;;12.40;99.90;;;;;;4370580;28;657452;-65
2023/10/28 09:10:04;;;;;;;3.40;1.23;;;12.40;99.90;;;;;;4352965;28;658085;-66
2023/10/28 09:12:53;;;;;;;5.83;1.30;;;12.60;99.90;;;;;;4369637;28;659012;-65
2023/10/28 09:15:40;;;;;;;4.83;1.30;;;12.80;99.90;;;;;;4357119;28;658729;-64
2023/10/28 09:18:38;;;;;;;1.53;1.17;;;13.30;99.90;;;;;;4363478;28;657552;-66
2023/10/28 09:21:25;;;;;;;4.60;1.40;;;13.70;99.90;;;;;;4346629;28;657813;-65
2023/10/28 09:24:12;;;;;;;0.30;0.30;;;13.80;99.90;;;;;;4358281;28;657786;-66
2023/10/28 09:27:00;;;;;;;2.60;1.23;;;13.60;99.90;;;;;;4376981;28;658032;-65
2023/10/28 09:29:49;;;;;;;3.47;1.10;;;13.40;99.90;;;;;;4353898;28;657813;-67
2023/10/28 09:32:37;;;;;;;2.67;1.30;;;13.50;99.90;;;;;;4371967;28;658284;-65
2023/10/28 09:35:24;;;;;;;1.83;0.73;;;13.70;99.90;;;;;;4343524;28;658704;-65
2023/10/28 09:38:12;;;;;;;2.30;0.80;;;13.70;99.90;;;;;;4361303;28;657651;-65
2023/10/28 09:41:01;;;;;;;5.23;0.90;;;13.90;99.90;;;;;;4348291;28;659319;-65
2023/10/28 09:43:48;;;;;;;3.57;0.80;;;14.00;99.90;;;;;;4348717;28;657963;-64
2023/10/28 09:46:37;;;;;;;3.00;0.93;;;14.00;99.90;;;;;;4369753;28;657328;-64
2023/10/28 09:49:24;;;;;;;3.07;1.30;;;14.10;99.90;;;;;;4346656;28;658933;-65
2023/10/28 09:52:12;;;;;;;1.33;1.10;;;13.90;99.90;;;;;;4368782;28;658123;-64
2023/10/28 09:55:04;;;;;;;2.63;0.90;;;13.80;99.90;;;;;;4350826;28;659363;-64
2023/10/28 09:57:52;;;;;;;3.13;0.73;;;13.90;99.90;;;;;;4350388;28;658875;-64
2023/10/28 10:00:39;;;;;;;3.80;0.93;;;14.00;99.90;;;;;;4346502;28;658287;-64
2023/10/28 10:03:37;;;;;;;3.83;1.10;;;13.90;99.90;;;;;;4371018;28;657309;-66
2023/10/28 10:06:25;;;;;;;2.40;0.50;;;13.30;99.90;;;;;;4348602;28;657827;-64
2023/10/28 10:09:18;;;;;;;0.80;0.47;;;12.90;99.90;;;;;;4372267;28;657975;-64
2023/10/28 10:12:05;;;;;;;3.80;1.20;;;12.90;99.90;;;;;;4350482;28;658142;-63
2023/10/28 10:14:53;;;;;;;2.77;1.10;;;13.00;99.90;;;;;;4353997;28;656893;-65
2023/10/28 10:17:46;;;;;;;3.60;1.00;;;12.90;99.90;;;;;;4371447;28;659579;-64
2023/10/28 10:20:35;;;;;;;1.50;0.87;;;12.80;99.90;;;;;;4326672;28;657859;-65
2023/10/28 10:23:23;;;;;;;3.17;1.00;;;12.50;99.90;;;;;;4349346;28;657579;-65
2023/10/28 10:26:25;;;;;;;1.63;0.50;;;12.30;99.90;;;;;;4372804;28;658732;-64
2023/10/28 10:29:12;;;;;;;4.77;1.10;;;12.50;99.90;;;;;;4329771;28;657610;-65
2023/10/28 10:32:00;;;;;;;3.87;1.20;;;12.60;99.90;;;;;;4374182;28;658811;-65
2023/10/28 10:34:47;;;;;;;3.10;1.00;;;12.60;99.90;;;;;;4370005;28;657778;-64
2023/10/28 10:37:35;;;;;;;3.40;1.03;;;12.70;99.90;;;;;;4351924;28;658422;-65
2023/10/28 10:40:23;;;;;;;2.83;1.10;;;13.00;99.90;;;;;;4346544;28;657111;-65
2023/10/28 10:43:11;;;;;;;5.07;1.80;;;13.00;99.90;;;;;;4371749;28;658742;-64
2023/10/28 10:45:58;;;;;;;1.10;0.70;;;13.40;99.90;;;;;;4353458;28;657564;-65
2023/10/28 10:48:46;;;;;;;2.50;1.23;;;13.90;99.90;;;;;;4369798;28;658819;-64
2023/10/28 10:51:34;;;;;;;1.10;0.80;;;13.50;99.90;;;;;;4348164;28;658251;-65
2023/10/28 10:54:23;;;;;;;2.63;1.13;;;13.60;99.90;;;;;;4364711;28;657579;-64
2023/10/28 10:57:10;;;;;;;0.33;0.33;;;13.10;99.90;;;;;;4345485;28;658888;-65
2023/10/28 10:59:58;;;;;;;3.87;1.10;;;13.40;99.90;;;;;;4350113;28;657788;-65
2023/10/28 11:02:45;;;;;;;2.13;1.10;;;13.40;99.90;;;;;;4375653;28;657625;-64
2023/10/28 11:05:33;;;;;;;6.00;1.43;;;13.40;99.90;;;;;;4344171;28;657461;-65
2023/10/28 11:08:20;;;;;;;1.40;0.80;;;13.40;99.90;;;;;;4362644;28;658723;-64
2023/10/28 11:11:13;;;;;;;0.90;0.60;;;13.60;99.90;;;;;;4351606;28;657474;-64
2023/10/28 11:14:00;;;;;;;2.70;1.10;;;13.60;99.90;;;;;;4344804;28;658434;-64
2023/10/28 11:16:47;;;;;;;1.03;0.40;;;13.40;99.90;;;;;;4359388;28;658189;-65
2023/10/28 11:19:36;;;;;;;3.47;0.90;;;13.30;99.90;;;;;;4360620;28;658906;-65
2023/10/28 11:22:23;;;;;;;3.20;0.90;;;13.20;99.90;;;;;;4341950;28;657752;-65
2023/10/28 11:25:10;;;;;;;3.27;0.63;;;13.00;99.90;;;;;;4364406;28;658238;-65
2023/10/28 11:28:05;;;;;;;0.83;0.60;;;13.00;99.90;;;;;;4355441;28;658109;-65
2023/10/28 11:30:52;;;;;;;6.07;1.13;;;12.70;99.90;;;;;;4365608;28;657638;-65
2023/10/28 11:33:41;;;;;;;8.70;1.27;;;12.50;99.90;;;;;;4382515;28;658422;-64
2023/10/28 11:36:28;;;;;;;0.83;0.63;;;12.80;99.90;;;;;;4342658;28;657859;-65
2023/10/28 11:39:17;;;;;;;3.40;0.83;;;12.90;99.90;;;;;;4363259;28;658470;-64
2023/10/28 11:42:09;;;;;;;1.35;0.60;;;12.70;99.90;;;;;;4360012;28;657999;-64
2023/10/28 11:44:58;;;;;;;4.50;1.10;;;12.50;99.90;;;;;;4355069;28;657695;-64
2023/10/28 11:47:45;;;;;;;4.60;1.40;;;12.50;99.90;;;;;;4355293;28;659404;-64
2023/10/28 11:50:32;;;;;;;5.97;1.17;;;12.60;99.90;;;;;;4358913;28;658310;-65
2023/10/28 11:53:23;;;;;;;7.23;1.30;;;12.50;99.90;;;;;;4373695;28;658765;-64
2023/10/28 11:56:10;;;;;;;2.80;0.90;;;12.90;99.90;;;;;;4348933;28;658682;-64
2023/10/28 11:58:57;;;;;;;3.23;1.30;;;12.90;99.90;;;;;;4351580;28;657813;-65
2023/10/28 12:01:46;;;;;;;2.80;1.43;;;12.70;99.90;;;;;;4380752;28;658184;-65
2023/10/28 12:04:34;;;;;;;1.37;0.90;;;12.50;99.90;;;;;;4356185;28;658042;-65
2023/10/28 12:07:21;;;;;;;0.90;0.67;;;12.30;99.90;;;;;;4363637;28;658216;-64
2023/10/28 12:10:10;;;;;;;2.33;0.80;;;12.00;99.90;;;;;;4353124;28;657731;-65
2023/10/28 12:12:58;;;;;;;5.43;1.40;;;11.90;99.90;;;;;;4355557;28;657724;-67
2023/10/28 12:15:45;;;;;;;2.03;1.20;;;11.90;99.90;;;;;;4376957;28;658853;-65
2023/10/28 12:18:34;;;;;;;4.87;1.30;;;11.90;99.90;;;;;;4362496;28;657483;-66
2023/10/28 12:21:21;;;;;;;2.97;1.47;;;12.00;99.90;;;;;;4377297;28;657535;-66
2023/10/28 12:24:11;;;;;;;4.60;1.67;;;12.00;99.90;;;;;;4357679;28;657525;-65
2023/10/28 12:26:58;;;;;;;3.43;1.53;;;11.90;99.90;;;;;;4350365;28;657528;-65
2023/10/28 12:29:45;;;;;;;2.57;1.50;;;11.90;99.90;;;;;;4363479;28;658085;-65
2023/10/28 12:32:33;;;;;;;2.20;0.50;;;11.80;99.90;;;;;;4356208;28;657695;-67
2023/10/28 12:35:22;;;;;;;4.53;1.10;;;11.80;99.90;;;;;;4389994;28;657935;-66
2023/10/28 12:38:09;;;;;;;1.90;1.50;;;11.80;99.90;;;;;;4353395;28;658591;-66
2023/10/28 12:40:56;;;;;;;2.67;1.57;;;11.80;99.90;;;;;;4381115;28;657578;-65
2023/10/28 12:43:44;;;;;;;2.67;1.53;;;11.80;99.90;;;;;;4356296;28;657710;-65
2023/10/28 12:46:31;;;;;;;2.67;1.30;;;12.00;99.90;;;;;;4376454;28;658063;-65
2023/10/28 12:49:18;;;;;;;3.37;1.30;;;12.00;99.90;;;;;;4348616;28;658729;-65
2023/10/28 12:52:07;;;;;;;2.90;1.52;;;12.10;99.90;;;;;;4379541;28;658168;-65
2023/10/28 12:54:55;;;;;;;2.53;1.40;;;12.00;99.90;;;;;;4357235;28;657580;-65
2023/10/28 12:57:42;;;;;;;2.83;1.60;;;12.10;99.90;;;;;;4380249;28;658322;-65
2023/10/28 13:00:29;;;;;;;2.63;1.30;;;12.10;99.90;;;;;;4348174;28;658683;-65
2023/10/28 13:03:16;;;;;;;2.37;0.90;;;12.10;99.90;;;;;;4377133;28;657678;-66
2023/10/28 13:06:04;;;;;;;3.73;1.00;;;12.00;99.90;;;;;;4347771;28;658091;-65
2023/10/28 13:08:53;;;;;;;3.90;1.40;;;12.00;99.90;;;;;;4365103;28;658201;-65
2023/10/28 13:11:40;;;;;;;3.17;1.90;;;11.90;99.90;;;;;;4336942;28;658439;-65
2023/10/28 13:14:28;;;;;;;3.50;1.93;;;11.80;99.90;;;;;;4364455;28;658097;-66
2023/10/28 13:17:15;;;;;;;3.90;2.10;;;11.80;99.90;;;;;;4372926;28;658181;-65
2023/10/28 13:20:04;;;;;;;2.77;1.90;;;11.80;99.90;;;;;;4343250;28;658058;-66
2023/10/28 13:22:51;;;;;;;5.97;2.40;;;11.70;99.90;;;;;;4377196;28;657565;-66
2023/10/28 13:25:40;;;;;;;6.57;2.70;;;11.80;99.90;;;;;;4357066;28;657529;-66
2023/10/28 13:28:27;;;;;;;8.63;2.50;;;11.80;99.90;;;;;;4353854;28;657608;-66
2023/10/28 13:31:15;;;;;;;5.40;2.50;;;11.80;99.90;;;;;;4379150;28;658536;-65
2023/10/28 13:34:04;;;;;;;5.47;2.50;;;11.80;99.90;;;;;;4357624;28;657968;-66
2023/10/28 13:36:52;;;;;;;2.37;1.23;;;11.80;99.90;;;;;;4364519;28;657770;-66
2023/10/28 13:39:39;;;;;;;5.10;1.93;;;11.90;99.90;;;;;;4347772;28;658350;-65
2023/10/28 13:42:27;;;;;;;3.17;1.50;;;11.90;99.90;;;;;;4370048;28;657292;-65
2023/10/28 13:45:15;;;;;;;3.50;1.90;;;11.90;99.90;;;;;;4339246;28;658366;-66
2023/10/28 13:48:03;;;;;;;5.53;2.17;;;11.90;99.90;;;;;;4372082;28;657649;-65
2023/10/28 13:50:51;;;;;;;7.47;1.73;;;11.90;99.90;;;;;;4370214;28;657846;-65
2023/10/28 13:53:39;;;;;;;4.30;1.20;;;11.90;99.90;;;;;;4338040;28;658802;-66
2023/10/28 13:56:26;;;;;;;3.50;1.90;;;11.90;99.90;;;;;;4371684;28;657870;-65
2023/10/28 13:59:15;;;;;;;3.93;1.90;;;11.90;99.90;;;;;;4354942;28;657423;-65
2023/10/28 14:02:03;;;;;;;3.63;1.90;;;12.00;99.90;;;;;;4345820;28;657272;-66
2023/10/28 14:04:50;;;;;;;6.90;1.50;;;11.90;99.90;;;;;;4374116;28;659097;-66
2023/10/28 14:07:38;;;;;;;4.33;1.90;;;11.90;99.90;;;;;;4364586;28;657903;-66
2023/10/28 14:10:25;;;;;;;6.60;2.40;;;11.90;99.90;;;;;;4364682;28;658943;-65
2023/10/28 14:13:12;;;;;;;3.73;1.77;;;11.80;99.90;;;;;;4361473;28;657707;-66
2023/10/28 14:16:02;;;;;;;3.33;1.70;;;11.80;99.90;;;;;;4380002;28;658683;-65
2023/10/28 14:18:50;;;;;;;7.43;2.30;;;11.80;99.90;;;;;;4352924;28;658128;-65
2023/10/28 14:21:38;;;;;;;2.47;1.60;;;11.80;99.90;;;;;;4373964;28;657301;-66
2023/10/28 14:24:25;;;;;;;2.20;1.03;;;11.80;99.90;;;;;;4377390;28;658534;-66